createdAt,value
2018-08-06T00:01:38.799Z,16.91
2018-08-06T00:09:59.814Z,16.79
2018-08-06T00:18:20.864Z,16.55
2018-08-06T00:26:41.937Z,16.58
2018-08-06T00:35:02.935Z,16.58
2018-08-06T00:43:23.974Z,16.34
2018-08-06T00:51:45.003Z,16.27
2018-08-06T01:00:06.043Z,16.12
2018-08-06T01:08:27.122Z,15.99
2018-08-06T01:16:48.307Z,15.93
2018-08-06T01:25:09.322Z,15.83
2018-08-06T01:33:30.437Z,15.77
2018-08-06T01:41:51.577Z,15.69
2018-08-06T01:50:12.594Z,15.65
2018-08-06T01:58:33.674Z,15.53
2018-08-06T02:06:54.718Z,15.34
2018-08-06T02:15:15.750Z,15.16
2018-08-06T02:23:36.774Z,15.13
2018-08-06T02:31:58.867Z,14.98
2018-08-06T02:40:19.918Z,14.93
2018-08-06T02:48:40.933Z,14.93
2018-08-06T02:57:02.279Z,14.82
2018-08-06T03:05:23.299Z,14.69
2018-08-06T03:13:44.292Z,14.64
2018-08-06T03:22:05.292Z,14.57
2018-08-06T03:30:26.292Z,14.45
2018-08-06T03:38:47.423Z,14.31
2018-08-06T03:47:08.473Z,14.21
2018-08-06T03:55:29.489Z,14.16
2018-08-06T04:03:50.522Z,14.11
2018-08-06T04:12:11.542Z,14.04
2018-08-06T04:20:32.650Z,14.04
2018-08-06T04:28:53.695Z,14.16
2018-08-06T04:37:14.711Z,14.34
2018-08-06T04:45:35.731Z,14.62
2018-08-06T04:53:56.778Z,14.77
2018-08-06T05:02:17.853Z,15.02
2018-08-06T05:10:38.895Z,15.27
2018-08-06T05:18:59.937Z,15.37
2018-08-06T05:27:21.003Z,15.38
2018-08-06T05:35:42.160Z,15.47
2018-08-06T05:44:03.190Z,15.50
2018-08-06T05:52:25.289Z,15.61
2018-08-06T06:00:46.346Z,15.85
2018-08-06T06:09:08.484Z,16.09
2018-08-06T06:17:29.521Z,16.43
2018-08-06T06:25:51.524Z,16.86
2018-08-06T06:34:12.661Z,17.41
2018-08-06T06:42:33.795Z,17.97
2018-08-06T06:50:54.805Z,18.47
2018-08-06T06:59:15.884Z,19.05
2018-08-06T07:07:36.904Z,19.55
2018-08-06T07:15:57.924Z,20.02
2018-08-06T07:24:18.953Z,20.56
2018-08-06T07:32:40.062Z,20.98
2018-08-06T07:41:01.388Z,21.37
2018-08-06T07:49:22.715Z,21.72
2018-08-06T07:57:45.870Z,22.17
2018-08-06T08:06:07.180Z,22.46
2018-08-06T08:14:28.193Z,22.90
2018-08-06T08:22:49.322Z,23.31
2018-08-06T08:31:10.430Z,23.68
2018-08-06T08:39:31.509Z,24.02
2018-08-06T08:47:52.516Z,24.57
2018-08-06T08:56:13.750Z,25.34
2018-08-06T09:04:34.808Z,26.01
2018-08-06T09:12:56.108Z,26.52
2018-08-06T09:21:17.737Z,26.88
2018-08-06T09:29:40.195Z,27.05
2018-08-06T09:38:01.526Z,27.14
2018-08-06T09:46:22.631Z,27.41
2018-08-06T09:54:43.812Z,27.66
2018-08-06T10:03:05.011Z,28.08
2018-08-06T10:11:26.110Z,28.26
2018-08-06T10:19:47.271Z,28.50
2018-08-06T10:28:08.302Z,28.75
2018-08-06T10:36:30.212Z,28.89
2018-08-06T10:44:51.504Z,29.26
2018-08-06T10:53:13.862Z,29.21
2018-08-06T11:01:39.666Z,29.54
2018-08-06T11:10:02.253Z,29.82
2018-08-06T11:18:23.329Z,30.17
2018-08-06T11:26:44.347Z,30.30
2018-08-06T11:35:05.437Z,30.65
2018-08-06T11:43:26.512Z,31.06
2018-08-06T11:51:48.627Z,31.73
2018-08-06T12:00:10.061Z,32.88
2018-08-06T12:08:31.421Z,34.39
2018-08-06T12:16:52.450Z,37.56
2018-08-06T12:25:14.776Z,39.78
2018-08-06T12:33:35.974Z,41.84
2018-08-06T12:41:57.121Z,43.88
2018-08-06T12:50:19.594Z,46.23
2018-08-06T12:58:40.815Z,47.47
2018-08-06T13:07:02.202Z,48.45
2018-08-06T14:03:20.799Z,51.32
2018-08-06T14:11:41.902Z,52.13
2018-08-06T14:20:03.493Z,52.02
2018-08-06T14:28:24.832Z,53.87
2018-08-06T14:36:45.905Z,54.40
2018-08-06T14:45:07.085Z,54.23
2018-08-06T14:53:28.152Z,52.33
2018-08-06T15:01:49.178Z,53.90
2018-08-06T15:10:11.279Z,54.08
2018-08-06T15:18:32.412Z,53.89
2018-08-06T15:26:53.431Z,53.10
2018-08-06T15:35:14.607Z,52.88
2018-08-06T15:43:35.935Z,53.27
2018-08-06T16:58:29.211Z,42.42
2018-08-06T17:06:50.329Z,41.39
2018-08-06T17:23:39.189Z,38.38
2018-08-06T17:32:00.341Z,38.90
2018-08-06T17:40:22.543Z,41.21
2018-08-06T17:48:47.176Z,42.86
2018-08-06T17:57:09.658Z,43.40
2018-08-06T18:05:31.420Z,42.93
2018-08-06T18:13:52.560Z,40.89
2018-08-06T18:22:13.694Z,37.43
2018-08-06T18:30:35.000Z,34.49
2018-08-06T18:38:58.047Z,32.40
2018-08-06T18:47:19.383Z,30.87
2018-08-06T19:04:06.726Z,28.81
2018-08-06T19:12:27.736Z,28.36
2018-08-06T19:20:48.745Z,27.70
2018-08-06T19:29:09.749Z,27.10
2018-08-06T19:37:30.738Z,26.61
2018-08-06T19:45:51.733Z,26.22
2018-08-06T19:54:12.727Z,25.77
2018-08-06T20:02:33.842Z,25.42
2018-08-06T20:10:54.886Z,25.07
2018-08-06T20:19:15.956Z,24.77
2018-08-06T20:27:36.977Z,24.58
2018-08-06T20:35:57.974Z,24.20
2018-08-06T20:44:19.086Z,23.76
2018-08-06T20:52:40.078Z,23.51
2018-08-06T21:01:01.173Z,23.21
2018-08-06T21:09:22.170Z,23.03
2018-08-06T21:17:43.579Z,22.82
2018-08-06T21:26:04.849Z,22.57
2018-08-06T21:34:25.857Z,22.38
2018-08-06T21:42:47.927Z,22.22
2018-08-06T21:51:08.914Z,22.05
2018-08-06T21:59:29.935Z,21.87
2018-08-06T22:07:50.930Z,21.55
2018-08-06T22:16:11.944Z,21.34
2018-08-06T22:24:32.942Z,21.27
2018-08-06T22:32:53.975Z,21.02
2018-08-06T22:41:15.044Z,20.85
2018-08-06T22:49:36.090Z,20.77
2018-08-06T22:57:57.133Z,20.58
2018-08-06T23:06:18.164Z,20.38
2018-08-06T23:14:39.168Z,20.35
2018-08-06T23:23:00.255Z,20.17
2018-08-06T23:31:21.317Z,19.93
2018-08-06T23:39:42.357Z,19.79
2018-08-06T23:48:03.394Z,19.68
2018-08-06T23:56:24.377Z,19.65
